| time (UTC) | temp F | wind direction | speed MPH | gust MPH | rain 1hr in | rain 24hr in | rain mn in | humidity % | barometer mb |
| 20260504205525 | 72 | 168 | 3.0 | 11.0 | 0.00 | 0.00 | 0.00 | 36 | 1010.1 |
| 20260504205027 | 71 | 206 | 3.0 | 12.0 | 0.00 | 0.00 | 0.00 | 35 | 1010.2 |
| 20260504204546 | 71 | 119 | 4.0 | 21.0 | 0.00 | 0.00 | 0.00 | 36 | 1010.3 |
| 20260504204028 | 72 | 226 | 5.0 | 21.0 | 0.00 | 0.00 | 0.00 | 34 | 1010.2 |
| 20260504203524 | 72 | 228 | 4.0 | 16.0 | 0.00 | 0.00 | 0.00 | 35 | 1010.2 |
| 20260504203049 | 72 | 215 | 3.0 | 9.0 | 0.00 | 0.00 | 0.00 | 34 | 1010.1 |
| 20260504202524 | 72 | 216 | 2.0 | 10.0 | 0.00 | 0.00 | 0.00 | 35 | 1010.2 |
| 20260504202025 | 72 | 319 | 4.0 | 11.0 | 0.00 | 0.00 | 0.00 | 35 | 1010.2 |
| 20260504201535 | 72 | 225 | 2.0 | 11.0 | 0.00 | 0.00 | 0.00 | 34 | 1010.2 |
| 20260504201025 | 72 | 194 | 3.0 | 10.0 | 0.00 | 0.00 | 0.00 | 36 | 1010.3 |
| 20260504200525 | 72 | 190 | 4.0 | 11.0 | 0.00 | 0.00 | 0.00 | 35 | 1010.1 |
| 20260504200044 | 72 | 154 | 4.0 | 12.0 | 0.00 | 0.00 | 0.00 | 34 | 1010.1 |
| 20260504195525 | 72 | 192 | 2.0 | 12.0 | 0.00 | 0.00 | 0.00 | 35 | 1010.1 |
| 20260504195021 | 72 | 157 | 3.0 | 12.0 | 0.00 | 0.00 | 0.00 | 35 | 1010.3 |
| 20260504194542 | 72 | 121 | 5.0 | 12.0 | 0.00 | 0.00 | 0.00 | 36 | 1010.3 |
| 20260504194024 | 72 | 192 | 5.0 | 12.0 | 0.00 | 0.00 | 0.00 | 35 | 1010.6 |
| 20260504193526 | 72 | 180 | 4.0 | 12.0 | 0.00 | 0.00 | 0.00 | 36 | 1010.6 |
| 20260504193043 | 72 | 142 | 4.0 | 12.0 | 0.00 | 0.00 | 0.00 | 36 | 1010.7 |
| 20260504192524 | 72 | 302 | 5.0 | 12.0 | 0.00 | 0.00 | 0.00 | 35 | 1010.6 |
| 20260504192024 | 71 | 188 | 5.0 | 12.0 | 0.00 | 0.00 | 0.00 | 35 | 1010.9 |
| 20260504191543 | 71 | 227 | 5.0 | 14.0 | 0.00 | 0.00 | 0.00 | 36 | 1010.9 |
| 20260504191024 | 71 | 138 | 5.0 | 14.0 | 0.00 | 0.00 | 0.00 | 36 | 1011.0 |
| 20260504190524 | 72 | 289 | 2.0 | 11.0 | 0.00 | 0.00 | 0.00 | 38 | 1011.0 |
| 20260504190040 | 71 | 224 | 5.0 | 13.0 | 0.00 | 0.00 | 0.00 | 35 | 1011.0 |
| 20260504185525 | 71 | 211 | 2.0 | 13.0 | 0.00 | 0.00 | 0.00 | 38 | 1011.1 |
| 20260504185021 | 71 | 182 | 6.0 | 12.0 | 0.00 | 0.00 | 0.00 | 36 | 1011.0 |
| 20260504184536 | 71 | 205 | 5.0 | 13.0 | 0.00 | 0.00 | 0.00 | 36 | 1011.2 |
| 20260504184022 | 71 | 142 | 5.0 | 13.0 | 0.00 | 0.00 | 0.00 | 36 | 1011.3 |
| 20260504183522 | 71 | 229 | 2.0 | 11.0 | 0.00 | 0.00 | 0.00 | 40 | 1011.4 |
| 20260504183043 | 71 | 242 | 5.0 | 12.0 | 0.00 | 0.00 | 0.00 | 36 | 1011.5 |
| 20260504182524 | 70 | 187 | 4.0 | 14.0 | 0.00 | 0.00 | 0.00 | 39 | 1011.4 |
| 20260504182025 | 71 | 127 | 4.0 | 14.0 | 0.00 | 0.00 | 0.00 | 37 | 1011.5 |
| 20260504181546 | 71 | 242 | 4.0 | 14.0 | 0.00 | 0.00 | 0.00 | 38 | 1011.6 |
| 20260504181024 | 71 | 192 | 3.0 | 12.0 | 0.00 | 0.00 | 0.00 | 37 | 1011.7 |
| 20260504180526 | 71 | 206 | 2.0 | 13.0 | 0.00 | 0.00 | 0.00 | 39 | 1011.7 |
| 20260504180043 | 70 | 244 | 5.0 | 13.0 | 0.00 | 0.00 | 0.00 | 43 | 1011.7 |
| 20260504175523 | 70 | 204 | 4.0 | 11.0 | 0.00 | 0.00 | 0.00 | 43 | 1011.9 |
| 20260504175022 | 70 | 247 | 5.0 | 11.0 | 0.00 | 0.00 | 0.00 | 41 | 1012.0 |
| 20260504174535 | 70 | 225 | 4.0 | 12.0 | 0.00 | 0.00 | 0.00 | 39 | 1012.2 |
| 20260504174022 | 69 | 252 | 5.0 | 20.0 | 0.00 | 0.00 | 0.00 | 39 | 1012.1 |
| 20260504173522 | 69 | 186 | 5.0 | 20.0 | 0.00 | 0.00 | 0.00 | 40 | 1012.1 |
| 20260504173036 | 70 | 178 | 6.0 | 12.0 | 0.00 | 0.00 | 0.00 | 40 | 1012.2 |
| 20260504172521 | 70 | 141 | 3.0 | 10.0 | 0.00 | 0.00 | 0.00 | 40 | 1012.1 |
| 20260504172021 | 69 | 194 | 3.0 | 10.0 | 0.00 | 0.00 | 0.00 | 43 | 1012.3 |
| 20260504171548 | 69 | 317 | 3.0 | 11.0 | 0.00 | 0.00 | 0.00 | 42 | 1012.2 |
| 20260504171023 | 68 | 0 | 3.0 | 11.0 | 0.00 | 0.00 | 0.00 | 42 | 1012.4 |
| 20260504170522 | 68 | 161 | 6.0 | 16.0 | 0.00 | 0.00 | 0.00 | 39 | 1012.5 |
| 20260504151021 | 64 | 190 | 2.0 | 9.0 | 0.00 | 0.00 | 0.00 | 51 | 1014.0 |
| 20260504150521 | 64 | 241 | 3.0 | 9.0 | 0.00 | 0.00 | 0.00 | 50 | 1013.9 |
| 20260504141024 | 62 | 180 | 4.0 | 11.0 | 0.00 | 0.00 | 0.00 | 54 | 1014.2 |
| 20260504140521 | 62 | 232 | 4.0 | 11.0 | 0.00 | 0.00 | 0.00 | 54 | 1014.2 |
| 20260504130522 | 58 | 251 | 5.0 | 11.0 | 0.00 | 0.00 | 0.00 | 58 | 1014.6 |
| 20260504110525 | 50 | 171 | 2.0 | 11.0 | 0.00 | 0.00 | 0.00 | 76 | 1015.4 |
| 20260504100521 | 48 | 187 | 2.0 | 7.0 | 0.00 | 0.00 | 0.00 | 74 | 1015.2 |
| 20260504081538 | 42 | 0 | 0.0 | 0.0 | 0.00 | 0.00 | 0.00 | 75 | 1015.0 |
| 20260504081022 | 43 | 0 | 0.0 | 0.0 | 0.00 | 0.00 | 0.00 | 74 | 1015.0 |
| 20260504080522 | 43 | 0 | 0.0 | 0.0 | 0.00 | 0.00 | 0.00 | 73 | 1015.0 |
| 20260504050524 | 47 | 0 | 0.0 | 0.0 | 0.00 | 0.00 | 0.00 | 61 | 1014.5 |
| 20260504045521 | 48 | 0 | 0.0 | 0.0 | 0.00 | 0.00 | 0.00 | 61 | 1014.5 |
| 20260504045023 | 48 | 0 | 0.0 | 0.0 | 0.00 | 0.00 | 0.00 | 60 | 1014.5 |
| 20260504044543 | 48 | 0 | 0.0 | 0.0 | 0.00 | 0.00 | 0.00 | 59 | 1014.5 |
| 20260504044021 | 48 | 0 | 0.0 | 1.0 | 0.00 | 0.00 | 0.00 | 59 | 1014.4 |
| 20260504043521 | 48 | 0 | 0.0 | 1.0 | 0.00 | 0.00 | 0.00 | 59 | 1014.4 |
| 20260504043036 | 49 | 0 | 0.0 | 0.0 | 0.00 | 0.00 | 0.00 | 58 | 1014.3 |
| 20260504042525 | 49 | 0 | 0.0 | 0.0 | 0.00 | 0.00 | 0.00 | 58 | 1014.3 |
| 20260504042024 | 49 | 0 | 0.0 | 0.0 | 0.00 | 0.00 | 0.00 | 58 | 1014.3 |
| 20260504041546 | 49 | 0 | 0.0 | 0.0 | 0.00 | 0.00 | 0.00 | 58 | 1014.2 |
| 20260504041021 | 49 | 0 | 0.0 | 0.0 | 0.00 | 0.00 | 0.00 | 57 | 1014.2 |
| 20260504040521 | 50 | 0 | 0.0 | 0.0 | 0.00 | 0.00 | 0.00 | 57 | 1014.0 |
| 20260504040103 | 50 | 0 | 0.0 | 1.0 | 0.00 | 0.00 | 0.00 | 56 | 1014.1 |
| 20260504035521 | 50 | 0 | 0.0 | 1.0 | 0.00 | 0.00 | 0.00 | 56 | 1013.9 |
| 20260504035026 | 50 | 0 | 0.0 | 1.0 | 0.00 | 0.00 | 0.00 | 55 | 1013.9 |
| 20260504034546 | 50 | 0 | 0.0 | 2.0 | 0.00 | 0.00 | 0.00 | 54 | 1013.9 |
| 20260504034021 | 50 | 0 | 0.0 | 2.0 | 0.00 | 0.00 | 0.00 | 54 | 1013.8 |
| 20260504033524 | 51 | 0 | 0.0 | 0.0 | 0.00 | 0.00 | 0.00 | 54 | 1013.8 |
| 20260504033037 | 51 | 0 | 0.0 | 0.0 | 0.00 | 0.00 | 0.00 | 53 | 1013.9 |
| 20260504032525 | 51 | 0 | 0.0 | 1.0 | 0.00 | 0.00 | 0.00 | 52 | 1013.9 |
| 20260504032028 | 51 | 0 | 0.0 | 3.0 | 0.00 | 0.00 | 0.00 | 51 | 1013.8 |
| 20260504031536 | 51 | 0 | 0.0 | 4.0 | 0.00 | 0.00 | 0.00 | 51 | 1013.8 |
| 20260504031024 | 51 | 166 | 0.0 | 4.0 | 0.00 | 0.00 | 0.00 | 51 | 1013.9 |
| 20260504030524 | 51 | 149 | 0.0 | 2.0 | 0.00 | 0.00 | 0.00 | 51 | 1013.7 |
| 20260504030042 | 52 | 0 | 0.0 | 2.0 | 0.00 | 0.00 | 0.00 | 50 | 1013.9 |
| 20260504025521 | 52 | 191 | 0.0 | 2.0 | 0.00 | 0.00 | 0.00 | 50 | 1013.7 |
| 20260504025021 | 52 | 0 | 0.0 | 5.0 | 0.00 | 0.00 | 0.00 | 50 | 1013.9 |
| 20260504024540 | 52 | 0 | 0.0 | 5.0 | 0.00 | 0.00 | 0.00 | 51 | 1013.7 |
| 20260504024025 | 51 | 211 | 0.0 | 5.0 | 0.00 | 0.00 | 0.00 | 50 | 1013.8 |
| 20260504023525 | 51 | 0 | 0.0 | 1.0 | 0.00 | 0.00 | 0.00 | 50 | 1013.8 |
| 20260504023040 | 51 | 0 | 0.0 | 1.0 | 0.00 | 0.00 | 0.00 | 50 | 1013.8 |
| 20260504022525 | 52 | 0 | 0.0 | 4.0 | 0.00 | 0.00 | 0.00 | 50 | 1013.8 |
| 20260504022025 | 52 | 0 | 0.0 | 4.0 | 0.00 | 0.00 | 0.00 | 49 | 1013.8 |
| 20260504021535 | 52 | 0 | 0.0 | 3.0 | 0.00 | 0.00 | 0.00 | 49 | 1013.8 |
| 20260504021024 | 52 | 0 | 0.0 | 3.0 | 0.00 | 0.00 | 0.00 | 49 | 1013.7 |
| 20260504020525 | 52 | 0 | 0.0 | 3.0 | 0.00 | 0.00 | 0.00 | 49 | 1013.7 |
| 20260504020042 | 52 | 0 | 0.0 | 1.0 | 0.00 | 0.00 | 0.00 | 50 | 1013.7 |
| 20260504015525 | 52 | 0 | 0.0 | 1.0 | 0.00 | 0.00 | 0.00 | 49 | 1013.8 |
| 20260504015025 | 52 | 0 | 0.0 | 1.0 | 0.00 | 0.00 | 0.00 | 49 | 1013.7 |
| 20260504014542 | 52 | 0 | 0.0 | 0.0 | 0.00 | 0.00 | 0.00 | 49 | 1013.7 |
| 20260504014021 | 52 | 0 | 0.0 | 0.0 | 0.00 | 0.00 | 0.00 | 49 | 1013.7 |
| 20260504013521 | 52 | 0 | 0.0 | 0.0 | 0.00 | 0.00 | 0.00 | 49 | 1013.6 |
| 20260504013046 | 52 | 0 | 0.0 | 0.0 | 0.00 | 0.00 | 0.00 | 48 | 1013.6 |
| 20260504012525 | 52 | 0 | 0.0 | 0.0 | 0.00 | 0.00 | 0.00 | 47 | 1013.6 |
| 20260504012022 | 52 | 0 | 0.0 | 0.0 | 0.00 | 0.00 | 0.00 | 47 | 1013.6 |
| 20260504011541 | 53 | 0 | 0.0 | 0.0 | 0.00 | 0.00 | 0.00 | 47 | 1013.5 |
| 20260504011021 | 53 | 0 | 0.0 | 1.0 | 0.00 | 0.00 | 0.00 | 45 | 1013.4 |
| 20260504010524 | 54 | 0 | 0.0 | 1.0 | 0.00 | 0.00 | 0.00 | 44 | 1013.2 |
| 20260504010037 | 54 | 0 | 0.0 | 1.0 | 0.00 | 0.00 | 0.00 | 44 | 1013.2 |
| 20260504005521 | 54 | 0 | 0.0 | 1.0 | 0.00 | 0.00 | 0.00 | 43 | 1013.1 |
| 20260504005025 | 54 | 0 | 0.0 | 1.0 | 0.00 | 0.00 | 0.00 | 44 | 1013.1 |
| 20260504004537 | 54 | 0 | 0.0 | 2.0 | 0.00 | 0.00 | 0.00 | 43 | 1013.0 |
| 20260504004025 | 55 | 0 | 0.0 | 2.0 | 0.00 | 0.00 | 0.00 | 42 | 1012.9 |
| 20260504003524 | 55 | 0 | 0.0 | 2.0 | 0.00 | 0.00 | 0.00 | 40 | 1012.9 |
| 20260504003036 | 55 | 0 | 0.0 | 0.0 | 0.00 | 0.00 | 0.00 | 41 | 1012.8 |
| 20260504002525 | 55 | 0 | 0.0 | 0.0 | 0.00 | 0.00 | 0.00 | 41 | 1012.7 |
| 20260504002024 | 56 | 0 | 0.0 | 1.0 | 0.00 | 0.00 | 0.00 | 40 | 1012.7 |
| 20260504001536 | 56 | 0 | 0.0 | 3.0 | 0.00 | 0.00 | 0.00 | 38 | 1012.7 |
| 20260504001024 | 56 | 0 | 0.0 | 3.0 | 0.00 | 0.00 | 0.00 | 39 | 1012.6 |
| 20260504000525 | 56 | 0 | 0.0 | 3.0 | 0.00 | 0.00 | 0.00 | 38 | 1012.4 |
| 20260504000042 | 57 | 0 | 0.0 | 6.0 | 0.00 | 0.00 | 0.00 | 38 | 1012.5 |
| 20260503235521 | 57 | 0 | 1.0 | 7.0 | 0.00 | 0.00 | 0.00 | 37 | 1012.5 |
| 20260503235024 | 58 | 286 | 2.0 | 7.0 | 0.00 | 0.00 | 0.00 | 35 | 1012.4 |
| 20260503234537 | 58 | 290 | 1.0 | 10.0 | 0.00 | 0.00 | 0.00 | 35 | 1012.4 |
| 20260503234022 | 58 | 308 | 2.0 | 10.0 | 0.00 | 0.00 | 0.00 | 35 | 1012.3 |
| 20260503233521 | 58 | 267 | 3.0 | 8.0 | 0.00 | 0.00 | 0.00 | 35 | 1012.2 |
| 20260503233039 | 58 | 300 | 2.0 | 9.0 | 0.00 | 0.00 | 0.00 | 35 | 1012.1 |
| 20260503232525 | 59 | 322 | 2.0 | 9.0 | 0.00 | 0.00 | 0.00 | 35 | 1012.1 |
| 20260503232024 | 59 | 0 | 2.0 | 11.0 | 0.00 | 0.00 | 0.00 | 34 | 1012.1 |
| 20260503231536 | 59 | 302 | 3.0 | 11.0 | 0.00 | 0.00 | 0.00 | 33 | 1012.2 |
| 20260503231026 | 59 | 240 | 4.0 | 11.0 | 0.00 | 0.00 | 0.00 | 33 | 1012.1 |
| 20260503230527 | 59 | 294 | 2.0 | 11.0 | 0.00 | 0.00 | 0.00 | 33 | 1012.0 |
| 20260503230042 | 59 | 286 | 4.0 | 11.0 | 0.00 | 0.00 | 0.00 | 32 | 1012.1 |
| 20260503225524 | 59 | 0 | 3.0 | 12.0 | 0.00 | 0.00 | 0.00 | 33 | 1012.0 |
| 20260503225024 | 60 | 284 | 3.0 | 12.0 | 0.00 | 0.00 | 0.00 | 32 | 1012.0 |
| 20260503224538 | 60 | 280 | 4.0 | 12.0 | 0.00 | 0.00 | 0.00 | 33 | 1012.0 |
| 20260503224022 | 59 | 277 | 2.0 | 11.0 | 0.00 | 0.00 | 0.00 | 32 | 1011.9 |
| 20260503223524 | 60 | 294 | 3.0 | 11.0 | 0.00 | 0.00 | 0.00 | 31 | 1011.9 |
| 20260503223040 | 60 | 281 | 4.0 | 13.0 | 0.00 | 0.00 | 0.00 | 32 | 1011.8 |
| 20260503222523 | 59 | 296 | 5.0 | 13.0 | 0.00 | 0.00 | 0.00 | 32 | 1011.9 |
| 20260503222023 | 59 | 245 | 5.0 | 13.0 | 0.00 | 0.00 | 0.00 | 32 | 1011.9 |
| 20260503221543 | 59 | 298 | 3.0 | 14.0 | 0.00 | 0.00 | 0.00 | 33 | 1011.8 |
| 20260503221026 | 59 | 0 | 2.0 | 14.0 | 0.00 | 0.00 | 0.00 | 33 | 1011.9 |
| 20260503220522 | 59 | 253 | 6.0 | 14.0 | 0.00 | 0.00 | 0.00 | 32 | 1012.0 |
| 20260503220036 | 60 | 244 | 6.0 | 14.0 | 0.00 | 0.00 | 0.00 | 33 | 1012.0 |
| 20260503215524 | 60 | 323 | 6.0 | 14.0 | 0.00 | 0.00 | 0.00 | 32 | 1012.0 |
| 20260503215027 | 60 | 307 | 3.0 | 14.0 | 0.00 | 0.00 | 0.00 | 34 | 1012.1 |
| 20260503214538 | 60 | 280 | 4.0 | 14.0 | 0.00 | 0.00 | 0.00 | 33 | 1011.9 |
| 20260503214022 | 60 | 311 | 6.0 | 13.0 | 0.00 | 0.00 | 0.00 | 33 | 1011.9 |
| 20260503213528 | 59 | 306 | 2.0 | 10.0 | 0.00 | 0.00 | 0.00 | 33 | 1012.0 |
| 20260503213044 | 60 | 148 | 1.0 | 13.0 | 0.00 | 0.00 | 0.00 | 34 | 1011.7 |
| 20260503212521 | 59 | 309 | 5.0 | 13.0 | 0.00 | 0.00 | 0.00 | 33 | 1011.9 |
| 20260503212024 | 60 | 292 | 4.0 | 13.0 | 0.00 | 0.00 | 0.00 | 32 | 1011.9 |
| 20260503211548 | 59 | 261 | 3.0 | 12.0 | 0.00 | 0.00 | 0.00 | 33 | 1011.9 |
| 20260503211025 | 59 | 279 | 2.0 | 14.0 | 0.00 | 0.00 | 0.00 | 34 | 1012.0 |
| 20260503210528 | 58 | 311 | 4.0 | 15.0 | 0.00 | 0.00 | 0.00 | 33 | 1012.0 |
| 20260503210039 | 59 | 312 | 6.0 | 15.0 | 0.00 | 0.00 | 0.00 | 33 | 1012.1 |